Time;durP1;ratioP1;P1;durP2;ratioP2;P2;SDS_P1;SDS_P2;PMS_P1;PMS_P2;Temp;Humidity;BMP_temperature;BMP_pressure;BME280_temperature;BME280_humidity;BME280_pressure;Samples;Min_cycle;Max_cycle;Signal;HPM_P1;HPM_P2
2022/04/19 00:00:14;;;;;;;6.80;4.10;;;;;;;6.86;44.91;100097.81;4761069;30;20070;-80
2022/04/19 00:02:41;;;;;;;8.50;4.07;;;;;;;6.87;45.43;100084.03;4765680;30;20069;-81
2022/04/19 00:05:09;;;;;;;7.05;4.32;;;;;;;6.95;45.56;100081.53;4766190;30;20096;-81
2022/04/19 00:07:37;;;;;;;8.60;4.80;;;;;;;6.91;45.32;100074.59;4777382;30;20047;-80
2022/04/19 00:10:05;;;;;;;8.30;4.97;;;;;;;7.13;45.31;100118.78;4777701;30;20047;-79
2022/04/19 00:12:31;;;;;;;7.85;5.05;;;;;;;7.07;45.44;100099.75;4765976;30;20053;-81
2022/04/19 00:14:57;;;;;;;7.70;4.10;;;;;;;7.14;45.40;100099.84;4799467;29;20062;-78
2022/04/19 00:17:29;;;;;;;6.57;4.30;;;;;;;6.97;45.47;100094.47;4799652;30;20051;-83
2022/04/19 00:19:55;;;;;;;5.25;3.40;;;;;;;6.96;46.17;100088.44;4771043;30;20094;-82
2022/04/19 00:22:21;;;;;;;7.13;3.65;;;;;;;7.14;45.59;100105.00;4786013;30;20100;-81
2022/04/19 00:24:47;;;;;;;7.05;3.67;;;;;;;7.01;45.86;100080.72;4760291;30;20089;-80
2022/04/19 00:27:13;;;;;;;5.80;3.45;;;;;;;7.21;45.65;100109.41;4790648;30;20063;-79
2022/04/19 00:29:41;;;;;;;5.28;3.20;;;;;;;7.31;46.04;100113.78;4769468;30;20039;-81
2022/04/19 00:32:08;;;;;;;4.95;3.22;;;;;;;7.16;45.43;100099.00;4778651;30;20058;-81
2022/04/19 00:34:38;;;;;;;7.28;3.30;;;;;;;7.02;45.75;100070.41;4772568;30;20047;-80
2022/04/19 00:37:05;;;;;;;4.90;3.05;;;;;;;7.20;45.80;100092.13;4784355;29;20449;-82
2022/04/19 00:39:31;;;;;;;5.95;3.35;;;;;;;7.07;46.25;100066.13;4785255;29;20043;-82
2022/04/19 00:41:57;;;;;;;5.68;3.78;;;;;;;7.31;45.95;100112.94;4768805;30;20496;-81
2022/04/19 00:44:24;;;;;;;11.70;4.57;;;;;;;7.32;45.91;100109.50;4765710;30;20042;-80
2022/04/19 00:46:50;;;;;;;8.90;3.97;;;;;;;7.21;46.12;100091.28;4766327;30;20039;-80
2022/04/19 00:49:17;;;;;;;7.72;3.78;;;;;;;7.13;46.00;100086.03;4747693;30;20938;-80
2022/04/19 00:51:45;;;;;;;6.50;3.63;;;;;;;7.02;45.84;100078.16;4782291;29;20048;-78
2022/04/19 00:54:14;;;;;;;6.47;3.35;;;;;;;7.16;46.06;100101.59;4772871;30;20050;-80
2022/04/19 00:56:41;;;;;;;6.90;4.03;;;;;;;7.11;45.86;100102.38;4788943;29;20047;-80
2022/04/19 00:59:10;;;;;;;7.13;3.85;;;;;;;7.11;46.33;100099.78;4776213;30;20051;-79
2022/04/19 01:01:37;;;;;;;7.03;3.50;;;;;;;7.13;46.44;100111.03;4770133;30;20116;-78
2022/04/19 01:04:05;;;;;;;7.43;3.40;;;;;;;6.90;45.73;100075.44;4780637;29;20044;-81
2022/04/19 01:06:31;;;;;;;4.82;3.55;;;;;;;7.06;46.83;100089.41;4780787;29;20104;-79
2022/04/19 01:08:58;;;;;;;4.93;3.28;;;;;;;6.68;46.28;100051.94;4764212;30;20141;-81
2022/04/19 01:14:12;;;;;;;7.43;3.90;;;;;;;6.88;46.59;100080.59;4779524;30;20043;-80
2022/04/19 01:16:42;;;;;;;5.22;3.25;;;;;;;6.73;46.32;100044.25;4779798;30;20071;-83
2022/04/19 01:19:16;;;;;;;5.55;3.38;;;;;;;7.03;46.43;100103.19;4768008;30;20075;-79
2022/04/19 01:21:50;;;;;;;11.02;3.65;;;;;;;7.02;47.05;100092.81;4767130;30;20109;-83
2022/04/19 01:24:28;;;;;;;5.90;3.75;;;;;;;6.73;46.81;100039.06;4749554;30;20139;-82
2022/04/19 01:26:56;;;;;;;6.80;3.60;;;;;;;6.84;46.57;100068.50;4765137;30;20057;-79
2022/04/19 01:29:25;;;;;;;6.63;3.30;;;;;;;6.97;46.91;100081.53;4779103;30;20047;-82
2022/04/19 01:31:52;;;;;;;7.25;3.75;;;;;;;6.83;47.06;100071.06;4763261;30;20504;-83
2022/04/19 01:34:20;;;;;;;5.93;3.90;;;;;;;6.82;46.49;100075.34;4766580;30;20078;-81
2022/04/19 01:36:49;;;;;;;6.32;4.10;;;;;;;6.82;46.98;100077.94;4774317;30;20039;-79
2022/04/19 01:39:16;;;;;;;5.88;3.60;;;;;;;6.71;47.02;100082.16;4775365;30;20966;-81
2022/04/19 01:41:45;;;;;;;5.88;3.80;;;;;;;6.70;47.15;100077.81;4747348;30;20577;-79
2022/04/19 01:44:14;;;;;;;7.70;4.00;;;;;;;6.74;47.45;100076.97;4776637;30;20092;-81
2022/04/19 01:46:40;;;;;;;6.60;3.65;;;;;;;6.36;47.14;100013.66;4775068;30;20059;-80
2022/04/19 01:49:06;;;;;;;6.68;4.20;;;;;;;6.62;47.46;100070.84;4787803;30;20051;-81
2022/04/19 01:51:32;;;;;;;7.82;4.55;;;;;;;6.55;47.44;100060.41;4787606;29;20050;-80
2022/04/19 01:53:58;;;;;;;6.95;4.30;;;;;;;6.42;47.55;100039.56;4803409;29;20043;-79
2022/04/19 01:56:25;;;;;;;8.20;4.10;;;;;;;6.54;47.46;100071.59;4777097;30;20039;-79
2022/04/19 01:58:53;;;;;;;8.05;4.55;;;;;;;6.54;47.09;100087.13;4804485;29;20087;-81
2022/04/19 02:01:25;;;;;;;6.50;4.10;;;;;;;6.54;48.43;100089.69;4787495;29;20051;-80
2022/04/19 02:03:51;;;;;;;6.63;3.75;;;;;;;6.45;48.37;100085.28;4774386;30;20058;-81
2022/04/19 02:06:22;;;;;;;7.95;4.25;;;;;;;6.33;48.20;100063.59;4762869;30;20054;-80
2022/04/19 02:08:48;;;;;;;6.00;3.80;;;;;;;6.45;48.42;100074.94;4770717;30;20146;-79
2022/04/19 02:11:17;;;;;;;8.82;4.18;;;;;;;6.54;48.28;100097.44;4765645;30;20136;-83
2022/04/19 02:13:52;;;;;;;9.50;4.20;;;;;;;6.38;48.53;100088.63;4778189;30;20043;-80
2022/04/19 02:16:23;;;;;;;9.23;4.47;;;;;;;6.29;48.64;100077.31;4749595;30;20039;-80
2022/04/19 02:18:49;;;;;;;7.63;4.65;;;;;;;6.35;48.63;100088.59;4763563;30;20054;-80
2022/04/19 02:21:15;;;;;;;13.63;5.93;;;;;;;6.29;48.50;100076.47;4763569;30;20047;-80
2022/04/19 02:23:41;;;;;;;15.15;5.70;;;;;;;6.27;48.53;100072.97;4767909;30;20043;-81
2022/04/19 02:26:07;;;;;;;11.43;5.15;;;;;;;6.20;48.85;100086.66;4763137;30;20047;-82
2022/04/19 02:28:35;;;;;;;8.25;4.82;;;;;;;6.11;48.92;100071.91;4778165;30;20134;-81
2022/04/19 02:31:14;;;;;;;7.60;4.03;;;;;;;6.00;49.09;100057.13;4760166;30;20070;-79
2022/04/19 02:33:48;;;;;;;11.30;4.45;;;;;;;6.32;49.20;100121.28;4766604;30;20053;-78
2022/04/19 02:36:15;;;;;;;10.02;4.50;;;;;;;6.17;49.55;100083.22;4748932;30;20476;-81
2022/04/19 02:38:42;;;;;;;15.25;7.97;;;;;;;6.35;48.87;100106.69;4773760;29;20536;-79
2022/04/19 02:41:08;;;;;;;8.40;4.35;;;;;;;6.38;49.73;100109.31;4765300;30;20484;-82
2022/04/19 02:43:37;;;;;;;6.50;3.45;;;;;;;6.29;48.29;100131.59;4762800;30;20289;-81
2022/04/19 02:46:04;;;;;;;6.03;3.70;;;;;;;6.14;49.57;100114.19;4746091;30;20091;-79
2022/04/19 02:48:35;;;;;;;5.00;3.40;;;;;;;6.29;49.98;100117.81;4767448;30;20059;-80
2022/04/19 02:51:02;;;;;;;8.25;3.22;;;;;;;6.21;50.10;100097.03;4788309;29;20346;-80
2022/04/19 02:53:28;;;;;;;5.80;3.10;;;;;;;6.10;49.57;100077.91;4774360;29;20070;-81
2022/04/19 02:55:55;;;;;;;6.38;3.20;;;;;;;6.27;50.04;100089.38;4746163;30;20048;-82
2022/04/19 02:58:21;;;;;;;8.13;3.33;;;;;;;6.46;49.25;100113.72;4761076;30;20054;-81
2022/04/19 03:00:47;;;;;;;6.32;3.22;;;;;;;6.52;50.42;100132.75;4774836;29;20143;-79
2022/04/19 03:03:13;;;;;;;7.40;3.35;;;;;;;6.61;50.76;100135.47;4773614;30;20052;-81
2022/04/19 03:05:40;;;;;;;5.28;3.25;;;;;;;6.52;49.83;100125.00;4759323;30;20067;-80
2022/04/19 03:08:07;;;;;;;7.13;3.53;;;;;;;6.54;50.50;100105.22;4773034;29;20043;-83
2022/04/19 03:10:34;;;;;;;20.08;5.90;;;;;;;6.51;50.15;100066.38;4773549;30;20048;-79
2022/04/19 03:13:01;;;;;;;6.93;3.65;;;;;;;6.72;49.72;100096.81;4759161;30;20054;-82
2022/04/19 03:15:34;;;;;;;10.02;4.50;;;;;;;7.02;49.48;100141.97;4775852;30;20043;-78
2022/04/19 03:18:01;;;;;;;10.15;3.95;;;;;;;6.71;49.57;100079.56;4759480;30;20143;-82
2022/04/19 03:20:30;;;;;;;6.30;4.07;;;;;;;6.98;49.96;100124.66;4774590;29;20051;-82
2022/04/19 03:28:29;;;;;;;8.23;4.10;;;;;;;7.16;48.99;100122.31;4785822;30;20047;-82
2022/04/19 03:30:56;;;;;;;6.45;3.75;;;;;;;7.15;49.52;100107.63;4767427;30;20055;-80
2022/04/19 03:33:22;;;;;;;7.90;4.40;;;;;;;7.43;49.36;100141.53;4781365;30;20040;-83
2022/04/19 03:35:50;;;;;;;9.45;4.43;;;;;;;7.11;49.44;100079.97;4762191;30;20115;-83
2022/04/19 03:38:16;;;;;;;6.47;3.80;;;;;;;7.26;49.71;100117.19;4744377;30;20060;-82
2022/04/19 03:40:46;;;;;;;5.90;4.05;;;;;;;6.81;49.37;100027.06;4757632;30;20056;-86
2022/04/19 03:43:12;;;;;;;7.80;4.30;;;;;;;7.25;49.03;100095.66;4735173;30;20055;-84
2022/04/19 03:45:38;;;;;;;8.10;4.30;;;;;;;7.37;48.99;100105.25;4756818;30;20048;-81
2022/04/19 03:48:05;;;;;;;6.07;3.30;;;;;;;7.34;49.24;100084.50;4740503;30;20043;-82
2022/04/19 03:50:32;;;;;;;7.75;4.05;;;;;;;7.44;48.95;100088.88;4741855;30;20117;-80
2022/04/19 03:52:58;;;;;;;6.90;4.00;;;;;;;7.64;49.24;100104.59;4756769;30;20452;-82
2022/04/19 03:55:26;;;;;;;8.63;4.00;;;;;;;7.40;49.21;100063.81;4746714;30;20055;-83
2022/04/19 03:57:51;;;;;;;8.32;4.13;;;;;;;7.57;48.83;100087.28;4734102;30;20044;-81
2022/04/19 04:00:21;;;;;;;8.65;4.30;;;;;;;7.69;48.91;100076.13;4757878;30;20106;-83
2022/04/19 04:02:56;;;;;;;8.13;3.58;;;;;;;8.13;48.95;100132.59;4748734;30;20048;-83
2022/04/19 04:05:25;;;;;;;6.95;3.35;;;;;;;8.16;48.95;100102.34;4735196;30;20088;-81
2022/04/19 04:07:52;;;;;;;6.13;3.10;;;;;;;8.12;48.26;100093.72;4735567;30;20048;-82
2022/04/19 04:10:22;;;;;;;6.63;3.50;;;;;;;8.07;48.60;100088.47;4759684;30;20047;-80
2022/04/19 04:12:48;;;;;;;8.93;3.90;;;;;;;8.17;48.50;100078.16;4746728;30;20123;-82
2022/04/19 04:15:15;;;;;;;8.60;3.63;;;;;;;8.21;47.96;100078.19;4746054;30;20097;-81
2022/04/19 04:17:41;;;;;;;6.63;3.75;;;;;;;8.48;48.54;100130.19;4729636;30;20040;-80
2022/04/19 04:20:09;;;;;;;9.25;3.63;;;;;;;8.23;48.15;100086.00;4751859;30;20149;-79
2022/04/19 04:22:35;;;;;;;5.50;3.10;;;;;;;8.18;48.21;100053.97;4744097;30;20040;-79
2022/04/19 04:25:04;;;;;;;6.72;3.10;;;;;;;8.47;48.19;100090.41;4782720;30;20028;-83
2022/04/19 04:27:32;;;;;;;8.48;3.83;;;;;;;8.37;47.65;100089.50;4767789;30;20092;-79
2022/04/19 04:30:00;;;;;;;5.53;2.88;;;;;;;8.56;48.34;100111.25;4759504;30;20057;-80
2022/04/19 04:32:26;;;;;;;4.90;3.10;;;;;;;8.80;47.96;100127.78;4754677;30;20048;-81
2022/04/19 04:34:52;;;;;;;5.65;3.25;;;;;;;8.69;48.00;100103.50;4739500;30;20057;-81
2022/04/19 04:37:18;;;;;;;6.22;2.83;;;;;;;8.40;47.87;100054.94;4765472;29;20071;-83
2022/04/19 04:39:55;;;;;;;7.32;3.58;;;;;;;8.51;48.01;100058.47;4752748;30;20055;-82
2022/04/19 04:42:27;;;;;;;5.82;3.20;;;;;;;8.99;47.76;100109.66;4764531;30;20611;-82
2022/04/19 04:45:00;;;;;;;5.28;2.75;;;;;;;9.18;47.86;100133.91;4766549;30;20064;-80
2022/04/19 04:50:10;;;;;;;9.88;3.33;;;;;;;8.71;47.64;100079.31;4767648;30;21398;-80
2022/04/19 04:52:36;;;;;;;4.82;3.08;;;;;;;8.53;47.87;100055.88;4768913;30;20047;-81
2022/04/19 04:55:07;;;;;;;6.07;3.63;;;;;;;8.03;47.88;99974.41;4766442;30;20575;-82
2022/04/19 04:57:35;;;;;;;4.20;3.20;;;;;;;9.09;47.29;100146.91;4730576;30;20102;-81
2022/04/19 05:00:05;;;;;;;9.05;2.97;;;;;;;8.65;47.50;100118.19;4746839;30;20055;-79
2022/04/19 05:02:51;;;;;;;6.07;3.13;;;;;;;8.31;47.92;100027.25;4766225;30;20457;-82
2022/04/19 05:05:18;;;;;;;6.72;2.95;;;;;;;8.16;48.33;100009.03;4783557;29;20044;-83
2022/04/19 05:07:44;;;;;;;9.68;3.60;;;;;;;8.63;48.14;100064.56;4797910;29;20032;-81
2022/04/19 05:10:11;;;;;;;7.80;3.38;;;;;;;8.36;48.06;100027.28;4792477;29;20100;-82
2022/04/19 05:12:37;;;;;;;10.65;3.78;;;;;;;9.06;48.13;100145.13;4779208;30;20039;-80
2022/04/19 05:15:04;;;;;;;8.68;3.15;;;;;;;8.60;48.51;100047.28;4763378;30;20059;-80
2022/04/19 05:17:34;;;;;;;5.70;3.72;;;;;;;9.05;47.67;100130.41;4765379;30;20052;-79
2022/04/19 05:20:01;;;;;;;6.55;3.92;;;;;;;8.66;48.36;100074.94;4765417;30;21534;-78
2022/04/19 05:22:29;;;;;;;9.27;3.30;;;;;;;8.84;48.63;100092.31;4762697;30;20067;-82
2022/04/19 05:24:56;;;;;;;5.25;2.70;;;;;;;8.73;47.70;100085.34;4778795;29;20068;-79
2022/04/19 05:27:22;;;;;;;3.47;2.58;;;;;;;9.27;49.00;100143.50;4764716;30;20135;-81
2022/04/19 05:29:50;;;;;;;5.38;2.83;;;;;;;9.27;48.52;100115.78;4752273;30;20043;-81
2022/04/19 05:32:16;;;;;;;4.10;3.10;;;;;;;9.32;48.39;100092.41;4770958;30;20055;-80
2022/04/19 05:34:42;;;;;;;5.47;2.97;;;;;;;9.61;48.10;100120.13;4761510;30;20043;-81
2022/04/19 05:37:09;;;;;;;7.10;3.83;;;;;;;9.35;48.14;100063.84;4775683;30;20777;-81
2022/04/19 05:39:35;;;;;;;8.05;4.30;;;;;;;9.89;48.18;100122.72;4760419;30;20087;-80
2022/04/19 05:42:02;;;;;;;6.72;3.40;;;;;;;9.46;47.35;100022.28;4761578;30;21210;-82
2022/04/19 05:44:28;;;;;;;6.00;2.70;;;;;;;9.88;47.72;100095.84;4747237;30;20421;-81
2022/04/19 05:46:54;;;;;;;11.23;3.45;;;;;;;9.68;47.06;100071.63;4747461;30;20055;-79
2022/04/19 05:49:22;;;;;;;7.20;3.88;;;;;;;9.95;47.46;100118.38;4731125;30;20067;-82
2022/04/19 05:51:51;;;;;;;8.13;3.35;;;;;;;9.95;47.14;100118.38;4745643;30;20052;-82
2022/04/19 05:54:18;;;;;;;7.60;3.88;;;;;;;9.90;46.77;100103.66;4741853;30;20052;-80
2022/04/19 05:56:44;;;;;;;9.90;5.80;;;;;;;9.80;47.61;100061.22;4736951;30;20067;-81
2022/04/19 05:59:10;;;;;;;7.75;4.05;;;;;;;10.40;47.77;100130.47;4736381;30;20060;-81
2022/04/19 06:07:06;;;;;;;7.70;4.82;;;;;;;10.58;46.47;100084.44;4745403;30;20048;-82
2022/04/19 06:09:32;;;;;;;10.55;5.70;;;;;;;10.87;46.97;100123.31;4735879;30;20056;-82
2022/04/19 06:12:00;;;;;;;7.88;4.30;;;;;;;10.99;46.33;100140.63;4743958;30;20102;-81
2022/04/19 06:14:31;;;;;;;13.18;6.13;;;;;;;10.81;45.99;100090.38;4734183;30;20049;-80
2022/04/19 06:16:57;;;;;;;7.68;3.92;;;;;;;10.97;45.98;100083.38;4744893;30;20051;-79
2022/04/19 06:19:23;;;;;;;8.10;3.60;;;;;;;11.15;45.53;100078.91;4743179;30;20056;-81
2022/04/19 06:21:49;;;;;;;5.88;3.58;;;;;;;11.54;44.99;100110.75;4744264;30;20044;-79
2022/04/19 06:24:16;;;;;;;7.03;4.15;;;;;;;11.70;45.14;100127.13;4763693;30;20517;-82
2022/04/19 06:26:45;;;;;;;5.60;3.08;;;;;;;11.26;44.43;100038.00;4744434;30;20457;-80
2022/04/19 06:29:18;;;;;;;5.97;3.42;;;;;;;12.03;45.46;100139.91;4750180;30;20178;-81
2022/04/19 06:32:03;;;;;;;5.13;2.92;;;;;;;11.83;44.77;100077.47;4729622;30;20402;-81
2022/04/19 06:34:36;;;;;;;5.43;3.25;;;;;;;11.93;44.63;100110.41;4763190;30;20066;-80
2022/04/19 06:37:23;;;;;;;6.10;4.00;;;;;;;12.15;44.42;100152.81;4758724;30;20052;-80
2022/04/19 06:40:10;;;;;;;7.78;4.78;;;;;;;11.95;44.19;100121.69;4758585;30;21005;-83
2022/04/19 06:42:40;;;;;;;4.85;3.03;;;;;;;11.70;44.74;100094.97;4750661;30;20412;-82
2022/04/19 06:45:24;;;;;;;7.63;3.70;;;;;;;11.85;43.98;100170.47;4767463;30;20061;-81
2022/04/19 06:48:05;;;;;;;4.38;2.70;;;;;;;11.03;44.37;100006.09;4754577;30;20119;-81
2022/04/19 06:50:40;;;;;;;5.55;2.60;;;;;;;11.36;45.00;100067.47;4780557;30;20518;-81
2022/04/19 06:53:14;;;;;;;6.87;2.53;;;;;;;10.68;44.36;99979.41;4747347;30;20047;-81
2022/04/19 06:56:12;;;;;;;7.32;2.88;;;;;;;10.61;45.03;100012.41;4774518;30;20044;-81
2022/04/19 06:58:42;;;;;;;6.45;2.70;;;;;;;11.34;45.33;100113.50;4746262;30;20055;-81
2022/04/19 07:01:10;;;;;;;4.00;2.65;;;;;;;11.67;45.42;100144.53;4759450;30;20043;-81
2022/04/19 07:03:40;;;;;;;9.38;5.40;;;;;;;11.27;45.37;100052.75;4764701;30;20076;-79
2022/04/19 07:06:27;;;;;;;4.40;2.50;;;;;;;11.82;44.78;100147.03;4751375;30;20059;-82
2022/04/19 07:08:56;;;;;;;5.05;2.28;;;;;;;11.01;44.95;100052.94;4759727;30;20130;-82
2022/04/19 07:11:22;;;;;;;4.20;2.47;;;;;;;11.18;45.03;100104.06;4751713;30;20130;-81
2022/04/19 07:13:59;;;;;;;6.63;2.70;;;;;;;10.70;45.80;100024.53;4767605;30;20051;-80
2022/04/19 07:16:54;;;;;;;3.20;2.30;;;;;;;11.50;45.82;100149.88;4759463;30;20094;-81
2022/04/19 07:19:23;;;;;;;4.80;2.67;;;;;;;10.90;45.47;100059.97;4761253;30;20052;-81
2022/04/19 07:27:58;;;;;;;20.60;8.20;;;;;;;10.67;46.31;100056.63;4777285;30;20126;-81
2022/04/19 07:30:52;;;;;;;8.10;3.67;;;;;;;11.04;45.94;100094.59;4767143;30;20071;-83
2022/04/19 07:33:22;;;;;;;7.05;2.92;;;;;;;10.78;45.99;100040.94;4754652;30;20055;-80
2022/04/19 07:35:55;;;;;;;5.13;2.67;;;;;;;10.91;45.59;100080.78;4751057;30;20040;-80
2022/04/19 07:38:25;;;;;;;2.70;1.92;;;;;;;11.19;46.64;100163.09;4770117;30;20131;-82
2022/04/19 07:41:13;;;;;;;5.10;2.42;;;;;;;10.60;47.02;100077.47;4772440;30;20048;-83
2022/04/19 07:43:44;;;;;;;3.03;2.10;;;;;;;9.95;46.54;99987.53;4774961;30;20124;-83
2022/04/19 07:46:11;;;;;;;6.57;2.33;;;;;;;11.10;47.04;100164.88;4784624;29;20109;-82
2022/04/19 07:48:38;;;;;;;5.18;2.35;;;;;;;10.86;47.16;100139.81;4741565;30;20043;-80
2022/04/19 07:51:05;;;;;;;6.55;3.00;;;;;;;10.58;46.55;100102.63;4773729;30;20051;-80
2022/04/19 07:53:32;;;;;;;15.20;6.30;;;;;;;10.02;46.85;100040.38;4746374;30;20047;-83
2022/04/19 07:56:02;;;;;;;9.38;3.78;;;;;;;10.44;47.66;100106.16;4761505;30;20048;-82
2022/04/19 07:58:29;;;;;;;6.05;3.00;;;;;;;10.34;47.48;100086.22;4762567;30;20516;-80
2022/04/19 08:00:56;;;;;;;6.03;3.63;;;;;;;10.84;47.80;100178.88;4762498;30;20537;-82
2022/04/19 08:03:37;;;;;;;5.00;2.55;;;;;;;10.80;47.58;100195.38;4748814;30;20047;-82
2022/04/19 08:06:07;;;;;;;9.90;3.03;;;;;;;10.63;47.88;100150.34;4763498;30;20390;-82
2022/04/19 08:08:43;;;;;;;7.07;2.90;;;;;;;10.84;46.99;100178.88;4759815;30;20058;-81
2022/04/19 08:11:10;;;;;;;5.50;2.90;;;;;;;10.40;47.83;100097.50;4757961;30;20055;-83
2022/04/19 08:13:41;;;;;;;3.80;2.83;;;;;;;10.93;48.18;100179.69;4761983;30;20051;-84
2022/04/19 08:16:10;;;;;;;5.20;2.92;;;;;;;10.87;47.76;100178.00;4777144;30;20115;-83
2022/04/19 08:18:37;;;;;;;7.65;2.53;;;;;;;10.43;47.80;100135.66;4765890;30;20194;-82
2022/04/19 08:21:04;;;;;;;4.68;2.50;;;;;;;10.19;47.83;100092.31;4752444;30;20129;-83
2022/04/19 08:23:30;;;;;;;3.95;2.35;;;;;;;10.12;47.84;100125.28;4781117;29;20119;-81
2022/04/19 08:26:04;;;;;;;3.58;2.60;;;;;;;10.46;48.69;100176.41;4788575;29;20048;-81
2022/04/19 08:28:33;;;;;;;4.65;2.58;;;;;;;10.42;48.95;100166.88;4758859;30;20134;-80
2022/04/19 08:30:59;;;;;;;3.42;2.72;;;;;;;10.22;48.49;100124.41;4764748;30;20070;-81
2022/04/19 08:33:29;;;;;;;5.07;2.70;;;;;;;10.22;49.05;100153.00;4776218;29;20422;-84
2022/04/19 08:36:02;;;;;;;4.80;2.67;;;;;;;10.08;49.16;100147.84;4776166;29;20052;-82
2022/04/19 08:38:29;;;;;;;4.45;2.80;;;;;;;10.14;49.30;100144.34;4760087;30;20060;-82
2022/04/19 08:40:54;;;;;;;5.60;2.80;;;;;;;10.41;49.79;100142.59;4767352;30;20497;-82
2022/04/19 08:43:28;;;;;;;4.82;2.75;;;;;;;10.46;49.07;100101.84;4763234;30;20051;-83
2022/04/19 08:45:59;;;;;;;3.75;2.25;;;;;;;10.76;48.98;100128.59;4750579;30;20179;-82
2022/04/19 08:48:26;;;;;;;4.00;2.60;;;;;;;10.48;48.37;100048.03;4763320;30;20044;-81
2022/04/19 08:51:10;;;;;;;4.00;2.50;;;;;;;11.25;48.62;100132.69;4766943;30;20083;-81
2022/04/19 08:59:27;;;;;;;5.63;2.92;;;;;;;11.85;47.65;100149.59;4763768;30;19932;-84
2022/04/19 09:02:39;;;;;;;5.93;3.40;;;;;;;12.00;47.07;100147.75;4767313;30;20058;-84
2022/04/19 09:05:26;;;;;;;10.63;4.05;;;;;;;12.06;47.26;100121.63;4730409;30;20067;-81
2022/04/19 09:07:59;;;;;;;6.95;3.33;;;;;;;12.08;47.03;100080.75;4773553;30;20123;-82
2022/04/19 09:10:32;;;;;;;9.00;3.95;;;;;;;12.07;46.78;100034.69;4782734;29;20103;-82
2022/04/19 09:13:09;;;;;;;5.55;3.28;;;;;;;11.86;46.70;99996.63;4777417;30;20058;-85
2022/04/19 09:16:00;;;;;;;7.13;3.55;;;;;;;12.07;45.79;100033.81;4767150;30;20047;-82
2022/04/19 09:19:31;;;;;;;6.28;2.90;;;;;;;12.35;46.02;100034.34;4802734;24;20102;-83
2022/04/19 09:22:03;;;;;;;4.97;2.83;;;;;;;12.74;46.08;100080.81;4789884;30;20123;-83
2022/04/19 09:24:59;;;;;;;6.25;3.08;;;;;;;13.24;45.92;100133.28;4788351;30;20070;-84
2022/04/19 09:27:37;;;;;;;6.13;3.45;;;;;;;12.55;45.47;99981.03;4773130;30;20127;-84
2022/04/19 09:30:23;;;;;;;7.28;2.80;;;;;;;13.28;44.89;100116.63;4776026;30;20362;-82
2022/04/19 09:33:42;;;;;;;3.47;2.38;;;;;;;13.63;45.22;100135.31;4788901;30;20078;-83
2022/04/19 09:36:30;;;;;;;4.90;2.20;;;;;;;13.76;44.98;100143.81;4777947;30;20067;-84
2022/04/19 09:39:44;;;;;;;6.80;3.70;;;;;;;13.00;44.93;100061.31;4770618;30;20102;-82
2022/04/19 09:42:17;;;;;;;5.10;2.78;;;;;;;12.98;45.03;100092.69;4787751;30;20104;-83
2022/04/19 09:44:52;;;;;;;5.30;3.60;;;;;;;12.09;45.32;99998.13;4772366;30;20142;-83
2022/04/19 09:47:47;;;;;;;5.97;3.63;;;;;;;12.16;45.42;99984.16;4773680;30;20039;-87
2022/04/19 09:50:47;;;;;;;4.20;2.83;;;;;;;12.93;46.02;100087.53;4762370;30;20062;-82
2022/04/19 09:53:39;;;;;;;8.27;5.68;;;;;;;13.33;45.80;100113.97;4790596;30;20051;-82
2022/04/19 09:56:20;;;;;;;4.95;2.70;;;;;;;13.57;44.76;100120.59;4789694;29;20081;-82
2022/04/19 09:58:53;;;;;;;4.63;2.58;;;;;;;13.54;45.23;100131.97;4797885;30;20108;-84
2022/04/19 10:09:40;;;;;;;11.73;2.67;;;;;;;13.81;44.66;100060.91;4775650;30;20140;-85
2022/04/19 10:12:11;;;;;;;4.78;2.83;;;;;;;14.66;44.12;100145.69;4789089;30;20194;-84
2022/04/19 10:14:43;;;;;;;3.72;2.63;;;;;;;14.23;43.82;100055.75;4777289;30;20054;-84
2022/04/19 10:17:15;;;;;;;5.35;2.83;;;;;;;14.87;43.71;100146.16;4789864;29;20047;-87
2022/04/19 10:20:04;;;;;;;4.60;2.78;;;;;;;14.70;43.40;100102.81;4791676;29;20043;-83
2022/04/19 10:22:33;;;;;;;3.58;2.70;;;;;;;13.76;43.43;99961.63;4795706;30;20059;-83
2022/04/19 10:25:03;;;;;;;7.43;2.95;;;;;;;13.70;43.41;99957.34;4801251;29;20039;-84
2022/04/19 10:27:33;;;;;;;6.00;2.92;;;;;;;13.85;42.94;99979.75;4787785;30;20062;-82
2022/04/19 10:30:19;;;;;;;8.90;4.13;;;;;;;14.06;43.62;100003.75;4785205;30;20044;-84
2022/04/19 10:32:57;;;;;;;5.40;3.70;;;;;;;14.57;43.28;100031.47;4792778;29;20047;-81
2022/04/19 10:35:27;;;;;;;7.05;3.20;;;;;;;14.51;42.76;99971.41;4775587;30;20043;-84
2022/04/19 10:38:23;;;;;;;3.63;2.78;;;;;;;15.91;42.27;100128.03;4791823;29;20130;-83
2022/04/19 10:40:51;;;;;;;9.77;3.22;;;;;;;15.79;41.74;100067.09;4793130;30;20512;-85
2022/04/19 10:43:17;;;;;;;7.00;3.28;;;;;;;15.32;40.92;99985.25;4779543;30;20071;-83
2022/04/19 10:45:51;;;;;;;7.03;3.03;;;;;;;15.75;40.94;100035.72;4788680;30;20047;-82
2022/04/19 10:48:17;;;;;;;4.03;2.80;;;;;;;15.91;40.77;100034.44;4773429;30;20051;-82
2022/04/19 10:50:51;;;;;;;4.40;2.30;;;;;;;16.44;41.14;100050.47;4786704;29;20043;-84
2022/04/19 10:53:33;;;;;;;4.28;2.60;;;;;;;16.85;39.79;100029.97;4786442;29;20129;-82
2022/04/19 10:56:03;;;;;;;9.30;4.07;;;;;;;17.25;38.26;100056.81;4772726;30;20043;-83
2022/04/19 10:58:43;;;;;;;6.97;3.55;;;;;;;17.69;38.83;100093.03;4789415;30;20051;-83
2022/04/19 11:01:30;;;;;;;6.65;4.00;;;;;;;17.29;38.36;100042.66;4773547;30;20055;-81
2022/04/19 11:04:04;;;;;;;6.30;3.50;;;;;;;17.89;38.48;100116.91;4775408;30;20468;-80
2022/04/19 11:06:42;;;;;;;5.20;2.53;;;;;;;17.95;37.73;100105.34;4789115;30;20083;-80
2022/04/19 11:09:20;;;;;;;9.13;2.58;;;;;;;17.25;37.67;99997.16;4788014;29;20043;-80
2022/04/19 11:11:53;;;;;;;4.15;2.28;;;;;;;17.96;37.35;100103.56;4787720;30;20109;-85
2022/04/19 11:14:21;;;;;;;3.63;2.55;;;;;;;17.95;37.38;100107.09;4785696;29;20152;-80
2022/04/19 11:17:24;;;;;;;3.92;2.20;;;;;;;17.96;37.35;100107.06;4770978;29;20100;-81
2022/04/19 11:20:10;;;;;;;3.78;2.72;;;;;;;17.79;36.70;100109.38;4791208;29;20051;-83
2022/04/19 11:22:52;;;;;;;4.88;3.35;;;;;;;16.82;37.65;99982.75;4792630;29;20051;-83
2022/04/19 11:25:42;;;;;;;5.55;3.53;;;;;;;17.68;37.32;100104.47;4772345;30;20047;-85
2022/04/19 11:28:09;;;;;;;4.30;2.30;;;;;;;17.60;37.47;100105.63;4773029;30;20055;-80
2022/04/19 11:30:45;;;;;;;7.25;2.13;;;;;;;16.25;36.86;99957.34;4792192;30;20074;-81
2022/04/19 11:33:50;;;;;;;2.65;2.05;;;;;;;17.00;38.42;100107.53;4794646;30;20553;-81
2022/04/19 11:36:22;;;;;;;3.23;2.13;;;;;;;16.46;37.76;100027.66;4794951;29;20049;-83
2022/04/19 11:38:50;;;;;;;5.13;2.20;;;;;;;16.71;37.78;100080.31;4805673;29;20292;-81
2022/04/19 11:46:58;;;;;;;3.00;2.35;;;;;;;17.35;36.97;100023.16;4791087;30;20055;-81
2022/04/19 11:49:29;;;;;;;4.97;2.50;;;;;;;17.44;36.97;99999.16;4790073;30;20050;-83
2022/04/19 11:52:18;;;;;;;5.03;2.20;;;;;;;17.99;36.41;100088.53;4791336;30;20054;-83
2022/04/19 11:55:06;;;;;;;4.30;2.22;;;;;;;17.76;36.53;100074.38;4772885;30;20133;-82
2022/04/19 11:57:32;;;;;;;3.88;2.20;;;;;;;17.09;36.67;100017.00;4788336;30;20043;-80
2022/04/19 11:59:58;;;;;;;3.53;2.28;;;;;;;17.08;36.82;100034.56;4788467;30;20047;-79
2022/04/19 12:02:24;;;;;;;6.28;2.20;;;;;;;17.06;37.23;100004.81;4789025;30;20532;-82
2022/04/19 12:05:01;;;;;;;2.88;2.05;;;;;;;16.91;37.05;100023.66;4774749;30;20047;-82
2022/04/19 12:07:27;;;;;;;3.72;2.20;;;;;;;16.74;37.38;99990.91;4791185;30;20047;-82
2022/04/19 12:09:58;;;;;;;5.00;2.05;;;;;;;16.89;36.47;100002.69;4795982;30;20416;-82
2022/04/19 12:12:26;;;;;;;;;;;;;;;17.36;36.58;100090.63;4798119;30;20047;-82
2022/04/19 12:15:11;;;;;;;4.65;2.13;;;;;;;16.92;37.33;100038.53;4782738;30;19925;-81
2022/04/19 12:17:49;;;;;;;5.30;2.33;;;;;;;16.74;37.25;100022.44;4791818;24;20226;-80
2022/04/19 12:20:48;;;;;;;8.35;2.38;;;;;;;16.23;37.47;99966.19;4795032;29;20079;-83
2022/04/19 12:23:37;;;;;;;;;;;;;;;;;;;;;
2022/04/19 12:26:24;;;;;;;4.60;1.92;;;;;;;16.62;37.94;100097.22;4790459;30;20039;-83
2022/04/19 12:28:53;;;;;;;4.13;2.47;;;;;;;16.66;37.42;100082.25;4782420;29;20043;-80
2022/04/19 12:31:44;;;;;;;5.55;3.25;;;;;;;16.70;37.84;100089.09;4773670;30;20058;-81
2022/04/19 12:34:15;;;;;;;4.85;2.05;;;;;;;16.28;38.46;100045.69;4788682;30;20044;-83
2022/04/19 12:36:54;;;;;;;4.25;2.10;;;;;;;16.55;38.57;100080.78;4785439;30;20804;-80